Aberdeen, SD

4:18 AM CDT on September 19, 2014 (GMT -0500)
Aberdeen Regional | Change Station
CLOSE
Current Station
Airport
Location: Aberdeen,
Elevation: 1299 ft
Nearby Weather Stations

Elev 1299 ft 45.44 °N, 98.41 °W | Updated 25 minutes ago

Clear
Clear
65 °F
Feels Like 65 °F
N
14
Wind Variable Wind from SSW
Gusts 24 mph

Today
High -- | Low -- °F
--% Chance of Precip.
Yesterday
High -- | Low -- °F
Precip. -- in
7:17 AM 7:36 PM
Waning Crescent, 20% visible
Pressure 29.75 in
Visibility 10.0 miles
Clouds Clear
Dew Point 58 °F
Humidity 78%
Rainfall 0.00 in
Snow Depth Not available.
UV 0 out of 12
Pollen 3.30 out of 12
Air Quality Not available.
Flu Activity Not available.
METAR KABR 190853Z AUTO 21012G21KT 10SM VCTS CLR 18/14 A2977 RMK AO2 LTG DSNT SW PRESRR SLP074 T01830144 53004

More Conditions Fewer Conditions

Pressure 29.75 in
Visibility 10.0 miles
Clouds Clear
Dew Point 58 °F
Humidity 78%
Rainfall 0.00 in
Snow Depth Not available.
UV 0 out of 12
Pollen 3.30 out of 12
Air Quality Not available.
Flu Activity Not available.
METAR KABR 190853Z AUTO 21012G21KT 10SM VCTS CLR 18/14 A2977 RMK AO2 LTG DSNT SW PRESRR SLP074 T01830144 53004

More Conditions Fewer Conditions

10-Day Weather Forecast

Almanac

Astronomy

Sep. 19, 2014 Rise Set
Actual Time 7:17 AM CDT 7:36 PM CDT
Civil Twilight 6:47 AM CDT 8:06 PM CDT
Nautical Twilight 6:12 AM CDT 8:41 PM CDT
Astronomical Twilight 5:36 AM CDT 9:17 PM CDT
Moon 2:53 AM CDT 5:15 PM CDT
Length of Visible Light 13h 19m
Length of Day
12h 19m
Tomorrow will be 3m 10s shorter.
Waning Crescent, 20% of the Moon is Illuminated
Today
Waning Crescent
Sep 24
New
Oct 1
First Quarter
Oct 8
Full
Oct 15
Last Quarter

Today's Extremes

State Highs State Lows

Community

WunderPhotos

Upload Photos

1,754,583 photos uploaded!

Nearby

Snow Depth

Station Depth Elevation
Blind Park 0 in 6890 ft

Earthquake Activity

City Distance Mag. Time & Date
No recent earthquake activity has been reported nearby.
Minimum magnitude displayed is 2.5.

Coastal Water Temperatures

Place Temperature
No Stations Reporting

Nearby Weather Stations